Airfield :
LOGIN :

Register | Disclaimer

   EN    FR    IT 

 










Legend :    VFR   Marginal VFR   IFR   Intensive IFR   Very Intensive IFR
Visi :
Ceiling :
>= 8 km
>= 3000ft
5 to 8 km
1000 to 3000 ft
1500m to 5 km
500 to 1000 ft
800 to 1500m
200 to 500 ft
< 800m
< 200 ft
Symbols :   Thunderstorms  Fog  Heavy snow  Heavy precipitations  Wind > 20 kt
SIGMETs :     Misc.  Thunderstorms  Icing  Turbulence  Mountain Waves  Volcanic Ashes






- Airport Elevation : 44 ft
- IATA code : SOU


EGHI - Southampton

CURRENT METAR :
  • 071520Z 22015G25KT 170V260 9999 SCT026 17/11 Q1017

EXPIRED METARs :
  • 071450Z 21016KT 180V240 9999 SCT026 17/11 Q1018
  • 071420Z 22016KT 180V250 9999 SCT025 17/11 Q1018
  • 071350Z 22015KT 190V250 9999 BKN028 17/11 Q1018
  • 071320Z 22016KT 9999 SCT038 17/10 Q1018
  • 071250Z 22015KT 200V260 9999 SCT033 18/09 Q1019

TAF TAF EGHI
Valid from the 07 at 15:00 until the 07 at 22:00 UTC


071404Z 0715/0722 23015KT 9999 SCT030
PROB40
TEMPO 0715/0719 24017G27KT
PROB40
TEMPO 0717/0719 7000 RA SHRA
ATIS : +44 23 8062 7103



MET'MAP, your aeronautical weather chart ! - Copyright ORBIFLY December 2007 - Disclaimer

ORBIFLY MET'MAP TEAM :

Programming & Development : Alexandra Zaïnal
Original concept : Baudouin d'Aumeries
Technical & hardware support : Manuel Goepfert
Assistance : Marc-Olivier Méhu




SOURCES & CREDITS :

   NOAA